Airfield :
LOGIN :

Register | Disclaimer

   EN    FR    IT 

 










Legend :    VFR   Marginal VFR   IFR   Intensive IFR   Very Intensive IFR
Visi :
Ceiling :
>= 8 km
>= 3000ft
5 to 8 km
1000 to 3000 ft
1500m to 5 km
500 to 1000 ft
800 to 1500m
200 to 500 ft
< 800m
< 200 ft
Symbols :   Thunderstorms  Fog  Heavy snow  Heavy precipitations  Wind > 20 kt
SIGMETs :     Misc.  Thunderstorms  Icing  Turbulence  Mountain Waves  Volcanic Ashes






- Airport Elevation : 32 ft
- IATA code : LKZ


EGUL - RAF Lakenheath

CURRENT METAR :
  • 142330Z 03005KT 9999 BKN050 05/04 A2964 RMK AO2A SLPNO WND DATA ESTMD ALSTG ESTMD LAST

EXPIRED METARs :
  • 142256Z 03005KT 9999 BKN050 05/05 A2964 RMK AO2A SLPNO WND DATA ESTMD ALSTG ESTMD
  • 142156Z 04005KT 9999 BKN040 04/04 A2963 RMK AO2A SLPNO WND DATA ESTMD ALSTG ESTMD

TAF AMD TAF EGUL
Valid from the 14 at 23:00 until the 16 at 03:00 UTC


142325Z 1423/1603 04009KT 9999 BKN040 QNH2964INS
BECMG 1504/1505 36010KT 8000 -SHRA SCT010 BKN020 610309 QNH2959INS
BECMG 1509/1510 01010G20KT 9999 NSW BKN030 OVC120 QNH2964INS
BECMG 1512/1513 02012G25KT 9999 BKN025 OVC120 620304 QNH2953INS
BECMG 1517/1518 03010G18KT 8000 -SHRA BKN015 610304 QNH2954INS TX09/1514Z TN03/1503Z LAST NO AMDS AFT 1423 NEXT 1505



MET'MAP, your aeronautical weather chart ! - Copyright ORBIFLY December 2007 - Disclaimer

ORBIFLY MET'MAP TEAM :

Programming & Development : Alexandra Zaïnal
Concept & Development : Baudouin d'Aumeries
Co-Development & Prog : Marc-Olivier Méhu
Technical & hardware support : Manuel Goepfert

Contact : metmap@orbifly.com




SOURCES & CREDITS :

   NOAA